In Rescue
 
Open Full Screen Window  High Contrast Mode
Wind Gusting 00 knots
03
November 28, 2020 12:09 AM EST
Weather Information
Wind Direction
  260 °
Wind Speed
  03 kt (3 mph)
Wind Gust
  00 kt (0 mph)
Altimeter
30.08 in
Visibility
10 SM
Temperature
00° C
32° F
Dewpoint
00° C
32° F
Humidity
100%
Sky Condition
Clear
VFR

METAR KHAI 280509Z AUTO 26003KT 10SM CLR 00/00 A3008 RMK AO2 T00040000

FAA Disclaimer: The data displayed is for advisory purposes only and is not to be used for flight planning or operations.